Ocracoke, NC

6:43 PM EDT on August 27, 2016 (GMT -0400)
Sunset Dr | | Change Station

Elev 16 ft 35.11 °N, 75.97 °W | Updated 16 minutes ago

Partly Cloudy
Partly Cloudy
87.3 °F
Feels Like 100 °F
N
0.6
Wind Variable Wind from SE

Today
High -- | Low -- °F
--% Chance of Precip.
Yesterday
High -- | Low -- °F
Precip. -- in
Pressure 30.07 in
Visibility 10.0 miles
Clouds Few 1100 ft
Heat Index 100 °F
Dew Point 76 °F
Humidity 74%
Rainfall Not available.
Snow Depth Not available.
6:33 AM 7:36 PM
Waning Crescent, 21% visible
METAR KHSE 272151Z AUTO 05006KT 10SM FEW011 29/25 A3007 RMK AO2 SLP182 T02940250 TSNO
Pressure 30.07 in
Visibility 10.0 miles
Clouds Few 1100 ft
Heat Index 100 °F
Dew Point 76 °F
Humidity 74%
Rainfall Not available.
Snow Depth Not available.
6:33 AM 7:36 PM
Waning Crescent, 21% visible
METAR KHSE 272151Z AUTO 05006KT 10SM FEW011 29/25 A3007 RMK AO2 SLP182 T02940250 TSNO

10-Day Weather Forecast

Almanac

Astronomy

Aug. 27, 2016 Rise Set
Actual Time
Civil Twilight
Nautical Twilight
Astronomical Twilight
Moon
Length of Visible Light
Length of Day
Tomorrow will be .
, % of the Moon is Illuminated

Today's Extremes

State Highs State Lows

Community

WunderPhotos

Upload Photos

1,935,458 photos uploaded!

WunderBlog® & News

Nearby

Air Quality

  Air Quality AQ Index Pollutant
Not available.

Snow Depth

Station Depth Elevation

Earthquake Activity

City Distance Mag. Time & Date
Minimum magnitude displayed is 2.5.

Coastal Water Temperatures

Place Temperature

Stations

Nearby Weather Stations

Station Location Temp. Windchill Dew Point Humidity Wind Precip. Elev Updated Type
                   

Watches & Warnings

There are currently no watches in effect.